sensor_id;sensor_type;location;lat;lon;timestamp;P1;durP1;ratioP1;P2;durP2;ratioP2
69835;SDS011;57132;51.972;4.450;2022-12-07T00:00:25;904.08;;;833.58;;
69835;SDS011;57132;51.972;4.450;2022-12-07T00:02:50;869.70;;;797.03;;
69835;SDS011;57132;51.972;4.450;2022-12-07T00:05:16;906.35;;;833.40;;
69835;SDS011;57132;51.972;4.450;2022-12-07T00:07:41;865.75;;;791.72;;
69835;SDS011;57132;51.972;4.450;2022-12-07T00:10:06;910.05;;;830.90;;
69835;SDS011;57132;51.972;4.450;2022-12-07T00:12:32;922.42;;;844.75;;
69835;SDS011;57132;51.972;4.450;2022-12-07T00:14:57;943.20;;;864.17;;
69835;SDS011;57132;51.972;4.450;2022-12-07T00:17:22;918.85;;;840.92;;
69835;SDS011;57132;51.972;4.450;2022-12-07T00:19:48;959.88;;;877.20;;
69835;SDS011;57132;51.972;4.450;2022-12-07T00:22:13;969.53;;;887.53;;
69835;SDS011;57132;51.972;4.450;2022-12-07T00:24:38;961.88;;;881.25;;
69835;SDS011;57132;51.972;4.450;2022-12-07T00:27:04;911.38;;;833.88;;
69835;SDS011;57132;51.972;4.450;2022-12-07T00:29:29;959.30;;;873.15;;
69835;SDS011;57132;51.972;4.450;2022-12-07T00:31:54;955.25;;;860.47;;
69835;SDS011;57132;51.972;4.450;2022-12-07T00:34:20;940.75;;;851.45;;
69835;SDS011;57132;51.972;4.450;2022-12-07T00:36:46;934.88;;;849.92;;
69835;SDS011;57132;51.972;4.450;2022-12-07T00:39:12;896.35;;;819.17;;
69835;SDS011;57132;51.972;4.450;2022-12-07T00:41:38;771.28;;;700.17;;
69835;SDS011;57132;51.972;4.450;2022-12-07T00:44:03;728.95;;;663.28;;
69835;SDS011;57132;51.972;4.450;2022-12-07T00:46:29;693.88;;;625.13;;
69835;SDS011;57132;51.972;4.450;2022-12-07T00:48:54;596.80;;;539.92;;
69835;SDS011;57132;51.972;4.450;2022-12-07T00:51:21;454.60;;;411.05;;
69835;SDS011;57132;51.972;4.450;2022-12-07T00:53:47;404.17;;;364.27;;
69835;SDS011;57132;51.972;4.450;2022-12-07T00:56:14;477.65;;;431.23;;
69835;SDS011;57132;51.972;4.450;2022-12-07T00:58:42;518.20;;;470.30;;
69835;SDS011;57132;51.972;4.450;2022-12-07T01:01:08;565.95;;;514.38;;
69835;SDS011;57132;51.972;4.450;2022-12-07T01:03:35;567.10;;;517.08;;
69835;SDS011;57132;51.972;4.450;2022-12-07T01:06:01;632.67;;;576.17;;
69835;SDS011;57132;51.972;4.450;2022-12-07T01:08:28;669.67;;;609.08;;
69835;SDS011;57132;51.972;4.450;2022-12-07T01:13:26;669.72;;;608.53;;
69835;SDS011;57132;51.972;4.450;2022-12-07T01:15:55;708.58;;;643.83;;
69835;SDS011;57132;51.972;4.450;2022-12-07T01:18:23;708.70;;;644.75;;
69835;SDS011;57132;51.972;4.450;2022-12-07T01:20:57;721.47;;;656.00;;
69835;SDS011;57132;51.972;4.450;2022-12-07T01:23:23;688.83;;;625.92;;
69835;SDS011;57132;51.972;4.450;2022-12-07T01:25:53;707.70;;;641.08;;
69835;SDS011;57132;51.972;4.450;2022-12-07T01:28:22;647.20;;;587.90;;
69835;SDS011;57132;51.972;4.450;2022-12-07T01:31:02;630.78;;;573.78;;
69835;SDS011;57132;51.972;4.450;2022-12-07T01:33:32;532.88;;;484.10;;
69835;SDS011;57132;51.972;4.450;2022-12-07T01:36:03;551.88;;;499.77;;
69835;SDS011;57132;51.972;4.450;2022-12-07T01:38:54;531.25;;;482.25;;
69835;SDS011;57132;51.972;4.450;2022-12-07T01:41:21;506.13;;;459.88;;
69835;SDS011;57132;51.972;4.450;2022-12-07T01:46:49;404.95;;;367.77;;
69835;SDS011;57132;51.972;4.450;2022-12-07T01:49:18;483.83;;;439.65;;
69835;SDS011;57132;51.972;4.450;2022-12-07T01:52:13;601.55;;;547.47;;
69835;SDS011;57132;51.972;4.450;2022-12-07T01:54:46;688.13;;;625.47;;
69835;SDS011;57132;51.972;4.450;2022-12-07T01:57:14;718.60;;;656.60;;
69835;SDS011;57132;51.972;4.450;2022-12-07T01:59:42;815.70;;;745.15;;
69835;SDS011;57132;51.972;4.450;2022-12-07T02:02:11;855.22;;;780.00;;
69835;SDS011;57132;51.972;4.450;2022-12-07T02:04:43;768.92;;;703.28;;
69835;SDS011;57132;51.972;4.450;2022-12-07T02:07:08;813.67;;;742.22;;
69835;SDS011;57132;51.972;4.450;2022-12-07T02:09:34;857.20;;;783.03;;
69835;SDS011;57132;51.972;4.450;2022-12-07T02:11:59;849.17;;;778.78;;
69835;SDS011;57132;51.972;4.450;2022-12-07T02:14:25;787.78;;;721.67;;
69835;SDS011;57132;51.972;4.450;2022-12-07T02:24:52;714.88;;;651.60;;
69835;SDS011;57132;51.972;4.450;2022-12-07T02:35:18;743.15;;;679.42;;
69835;SDS011;57132;51.972;4.450;2022-12-07T02:40:36;710.08;;;645.97;;
69835;SDS011;57132;51.972;4.450;2022-12-07T02:43:19;765.83;;;700.65;;
69835;SDS011;57132;51.972;4.450;2022-12-07T02:46:01;682.95;;;626.92;;
69835;SDS011;57132;51.972;4.450;2022-12-07T02:48:30;714.10;;;651.85;;
69835;SDS011;57132;51.972;4.450;2022-12-07T02:50:57;700.53;;;638.00;;
69835;SDS011;57132;51.972;4.450;2022-12-07T02:53:29;722.95;;;659.78;;
69835;SDS011;57132;51.972;4.450;2022-12-07T02:56:06;677.03;;;616.58;;
69835;SDS011;57132;51.972;4.450;2022-12-07T02:58:47;693.72;;;632.05;;
69835;SDS011;57132;51.972;4.450;2022-12-07T03:04:11;656.38;;;600.92;;
69835;SDS011;57132;51.972;4.450;2022-12-07T03:07:06;589.90;;;538.45;;
69835;SDS011;57132;51.972;4.450;2022-12-07T03:09:58;605.97;;;552.97;;
69835;SDS011;57132;51.972;4.450;2022-12-07T03:12:44;692.47;;;631.17;;
69835;SDS011;57132;51.972;4.450;2022-12-07T03:15:21;730.08;;;664.90;;
69835;SDS011;57132;51.972;4.450;2022-12-07T03:17:52;818.78;;;747.65;;
69835;SDS011;57132;51.972;4.450;2022-12-07T03:20:22;824.90;;;750.55;;
69835;SDS011;57132;51.972;4.450;2022-12-07T03:22:50;860.20;;;784.38;;
69835;SDS011;57132;51.972;4.450;2022-12-07T03:25:17;844.85;;;770.50;;
69835;SDS011;57132;51.972;4.450;2022-12-07T03:27:44;822.95;;;749.40;;
69835;SDS011;57132;51.972;4.450;2022-12-07T03:30:26;850.55;;;773.13;;
69835;SDS011;57132;51.972;4.450;2022-12-07T03:32:58;875.35;;;792.15;;
69835;SDS011;57132;51.972;4.450;2022-12-07T03:35:31;942.78;;;852.33;;
69835;SDS011;57132;51.972;4.450;2022-12-07T03:38:20;889.05;;;801.75;;
69835;SDS011;57132;51.972;4.450;2022-12-07T03:40:51;963.85;;;870.10;;
69835;SDS011;57132;51.972;4.450;2022-12-07T03:43:30;922.40;;;835.25;;
69835;SDS011;57132;51.972;4.450;2022-12-07T03:48:41;938.63;;;852.80;;
69835;SDS011;57132;51.972;4.450;2022-12-07T03:51:13;985.95;;;889.55;;
69835;SDS011;57132;51.972;4.450;2022-12-07T03:53:50;978.42;;;886.13;;
69835;SDS011;57132;51.972;4.450;2022-12-07T03:56:22;997.15;;;908.47;;
69835;SDS011;57132;51.972;4.450;2022-12-07T03:58:48;920.47;;;838.55;;
69835;SDS011;57132;51.972;4.450;2022-12-07T04:01:14;966.08;;;883.80;;
69835;SDS011;57132;51.972;4.450;2022-12-07T04:03:40;907.55;;;829.35;;
69835;SDS011;57132;51.972;4.450;2022-12-07T04:06:05;933.72;;;856.25;;
69835;SDS011;57132;51.972;4.450;2022-12-07T04:08:31;847.20;;;775.90;;
69835;SDS011;57132;51.972;4.450;2022-12-07T04:10:56;936.33;;;856.80;;
69835;SDS011;57132;51.972;4.450;2022-12-07T04:13:21;925.72;;;848.08;;
69835;SDS011;57132;51.972;4.450;2022-12-07T04:15:47;892.75;;;817.67;;
69835;SDS011;57132;51.972;4.450;2022-12-07T04:18:12;833.85;;;763.28;;
69835;SDS011;57132;51.972;4.450;2022-12-07T04:20:38;759.40;;;695.47;;
69835;SDS011;57132;51.972;4.450;2022-12-07T04:23:03;803.35;;;734.97;;
69835;SDS011;57132;51.972;4.450;2022-12-07T04:25:28;814.28;;;745.28;;
69835;SDS011;57132;51.972;4.450;2022-12-07T04:27:54;796.53;;;727.72;;
69835;SDS011;57132;51.972;4.450;2022-12-07T04:30:19;754.00;;;689.72;;
69835;SDS011;57132;51.972;4.450;2022-12-07T04:32:44;692.58;;;635.65;;
69835;SDS011;57132;51.972;4.450;2022-12-07T04:35:10;655.50;;;598.08;;
69835;SDS011;57132;51.972;4.450;2022-12-07T04:37:35;631.85;;;577.50;;
69835;SDS011;57132;51.972;4.450;2022-12-07T04:40:00;628.95;;;575.50;;
69835;SDS011;57132;51.972;4.450;2022-12-07T04:42:26;604.80;;;550.75;;
69835;SDS011;57132;51.972;4.450;2022-12-07T04:44:51;582.10;;;532.30;;
69835;SDS011;57132;51.972;4.450;2022-12-07T04:47:16;576.35;;;526.22;;
69835;SDS011;57132;51.972;4.450;2022-12-07T04:49:42;533.33;;;487.13;;
69835;SDS011;57132;51.972;4.450;2022-12-07T04:52:07;575.30;;;525.22;;
69835;SDS011;57132;51.972;4.450;2022-12-07T04:54:33;577.55;;;526.95;;
69835;SDS011;57132;51.972;4.450;2022-12-07T04:56:59;607.28;;;555.25;;
69835;SDS011;57132;51.972;4.450;2022-12-07T04:59:24;583.55;;;533.45;;
69835;SDS011;57132;51.972;4.450;2022-12-07T05:01:50;648.60;;;593.22;;
69835;SDS011;57132;51.972;4.450;2022-12-07T05:04:15;614.15;;;560.92;;
69835;SDS011;57132;51.972;4.450;2022-12-07T05:06:41;632.33;;;577.13;;
69835;SDS011;57132;51.972;4.450;2022-12-07T05:09:07;658.00;;;599.95;;
69835;SDS011;57132;51.972;4.450;2022-12-07T05:11:32;635.22;;;579.60;;
69835;SDS011;57132;51.972;4.450;2022-12-07T05:14:05;668.38;;;609.65;;
69835;SDS011;57132;51.972;4.450;2022-12-07T05:16:33;659.65;;;600.50;;
69835;SDS011;57132;51.972;4.450;2022-12-07T05:18:59;675.58;;;617.22;;
69835;SDS011;57132;51.972;4.450;2022-12-07T05:21:24;646.85;;;592.38;;
69835;SDS011;57132;51.972;4.450;2022-12-07T05:23:50;711.88;;;651.60;;
69835;SDS011;57132;51.972;4.450;2022-12-07T05:26:15;727.92;;;664.22;;
69835;SDS011;57132;51.972;4.450;2022-12-07T05:28:41;776.42;;;710.03;;
69835;SDS011;57132;51.972;4.450;2022-12-07T05:31:06;736.28;;;673.40;;
69835;SDS011;57132;51.972;4.450;2022-12-07T05:33:32;761.22;;;696.67;;
69835;SDS011;57132;51.972;4.450;2022-12-07T05:35:57;770.35;;;705.22;;
69835;SDS011;57132;51.972;4.450;2022-12-07T05:38:22;724.55;;;663.83;;
69835;SDS011;57132;51.972;4.450;2022-12-07T05:40:48;676.17;;;617.97;;
69835;SDS011;57132;51.972;4.450;2022-12-07T05:43:13;649.03;;;592.47;;
69835;SDS011;57132;51.972;4.450;2022-12-07T05:45:39;680.22;;;618.97;;
69835;SDS011;57132;51.972;4.450;2022-12-07T05:48:04;634.63;;;578.38;;
69835;SDS011;57132;51.972;4.450;2022-12-07T05:50:29;663.88;;;603.75;;
69835;SDS011;57132;51.972;4.450;2022-12-07T05:52:55;631.35;;;575.05;;
69835;SDS011;57132;51.972;4.450;2022-12-07T05:55:20;641.42;;;585.10;;
69835;SDS011;57132;51.972;4.450;2022-12-07T05:57:45;661.08;;;603.25;;
69835;SDS011;57132;51.972;4.450;2022-12-07T06:00:31;558.20;;;510.67;;
69835;SDS011;57132;51.972;4.450;2022-12-07T06:02:57;668.53;;;610.42;;
69835;SDS011;57132;51.972;4.450;2022-12-07T06:05:22;700.90;;;639.70;;
69835;SDS011;57132;51.972;4.450;2022-12-07T06:07:48;753.78;;;690.00;;
69835;SDS011;57132;51.972;4.450;2022-12-07T06:10:14;788.80;;;723.20;;
69835;SDS011;57132;51.972;4.450;2022-12-07T06:12:39;792.97;;;726.33;;
69835;SDS011;57132;51.972;4.450;2022-12-07T06:15:07;798.80;;;730.17;;
69835;SDS011;57132;51.972;4.450;2022-12-07T06:17:33;804.47;;;737.22;;
69835;SDS011;57132;51.972;4.450;2022-12-07T06:19:58;743.00;;;680.65;;
69835;SDS011;57132;51.972;4.450;2022-12-07T06:22:24;695.03;;;632.03;;
69835;SDS011;57132;51.972;4.450;2022-12-07T06:24:49;631.70;;;577.13;;
69835;SDS011;57132;51.972;4.450;2022-12-07T06:27:15;522.90;;;474.88;;
69835;SDS011;57132;51.972;4.450;2022-12-07T06:29:40;518.67;;;470.15;;
69835;SDS011;57132;51.972;4.450;2022-12-07T06:32:05;465.08;;;423.85;;
69835;SDS011;57132;51.972;4.450;2022-12-07T06:34:31;498.60;;;454.42;;
69835;SDS011;57132;51.972;4.450;2022-12-07T06:36:57;464.13;;;421.58;;
69835;SDS011;57132;51.972;4.450;2022-12-07T06:39:26;467.73;;;426.02;;
69835;SDS011;57132;51.972;4.450;2022-12-07T06:41:52;557.70;;;440.55;;
69835;SDS011;57132;51.972;4.450;2022-12-07T06:44:19;501.85;;;456.33;;
69835;SDS011;57132;51.972;4.450;2022-12-07T06:46:45;561.00;;;509.70;;
69835;SDS011;57132;51.972;4.450;2022-12-07T06:49:11;574.08;;;525.17;;
69835;SDS011;57132;51.972;4.450;2022-12-07T06:51:36;585.97;;;534.17;;
69835;SDS011;57132;51.972;4.450;2022-12-07T06:54:06;623.78;;;570.83;;
69835;SDS011;57132;51.972;4.450;2022-12-07T06:56:32;625.55;;;573.38;;
69835;SDS011;57132;51.972;4.450;2022-12-07T06:58:57;641.08;;;587.15;;
69835;SDS011;57132;51.972;4.450;2022-12-07T07:01:22;665.92;;;608.65;;
69835;SDS011;57132;51.972;4.450;2022-12-07T07:03:48;689.42;;;631.65;;
69835;SDS011;57132;51.972;4.450;2022-12-07T07:06:13;727.50;;;666.83;;
69835;SDS011;57132;51.972;4.450;2022-12-07T07:08:39;724.75;;;663.25;;
69835;SDS011;57132;51.972;4.450;2022-12-07T07:11:06;709.78;;;650.17;;
69835;SDS011;57132;51.972;4.450;2022-12-07T07:13:32;726.55;;;665.05;;
69835;SDS011;57132;51.972;4.450;2022-12-07T07:15:58;689.45;;;629.20;;
69835;SDS011;57132;51.972;4.450;2022-12-07T07:18:23;692.88;;;633.92;;
69835;SDS011;57132;51.972;4.450;2022-12-07T07:20:52;694.05;;;633.90;;
69835;SDS011;57132;51.972;4.450;2022-12-07T07:23:19;694.72;;;635.03;;
69835;SDS011;57132;51.972;4.450;2022-12-07T07:25:45;688.17;;;629.53;;
69835;SDS011;57132;51.972;4.450;2022-12-07T07:28:11;689.80;;;629.63;;
69835;SDS011;57132;51.972;4.450;2022-12-07T07:30:37;681.58;;;620.42;;
69835;SDS011;57132;51.972;4.450;2022-12-07T07:33:02;671.13;;;610.90;;
69835;SDS011;57132;51.972;4.450;2022-12-07T07:35:29;624.35;;;568.22;;
69835;SDS011;57132;51.972;4.450;2022-12-07T07:37:56;666.88;;;609.03;;
69835;SDS011;57132;51.972;4.450;2022-12-07T07:40:21;697.33;;;638.10;;
69835;SDS011;57132;51.972;4.450;2022-12-07T07:42:48;736.30;;;675.03;;
69835;SDS011;57132;51.972;4.450;2022-12-07T07:45:14;756.47;;;694.53;;
69835;SDS011;57132;51.972;4.450;2022-12-07T07:47:40;778.97;;;714.92;;
69835;SDS011;57132;51.972;4.450;2022-12-07T07:50:05;754.33;;;690.22;;
69835;SDS011;57132;51.972;4.450;2022-12-07T07:52:31;713.67;;;652.83;;
69835;SDS011;57132;51.972;4.450;2022-12-07T07:54:57;777.33;;;711.22;;
69835;SDS011;57132;51.972;4.450;2022-12-07T07:57:22;758.30;;;694.80;;
69835;SDS011;57132;51.972;4.450;2022-12-07T07:59:48;772.10;;;708.17;;
69835;SDS011;57132;51.972;4.450;2022-12-07T08:02:14;778.47;;;713.40;;
69835;SDS011;57132;51.972;4.450;2022-12-07T08:04:41;739.45;;;676.97;;
69835;SDS011;57132;51.972;4.450;2022-12-07T08:07:06;732.15;;;671.75;;
69835;SDS011;57132;51.972;4.450;2022-12-07T08:09:32;737.83;;;677.78;;
69835;SDS011;57132;51.972;4.450;2022-12-07T08:11:57;779.30;;;713.88;;
69835;SDS011;57132;51.972;4.450;2022-12-07T08:14:23;746.97;;;678.92;;
69835;SDS011;57132;51.972;4.450;2022-12-07T08:16:49;711.47;;;648.20;;
69835;SDS011;57132;51.972;4.450;2022-12-07T08:19:15;765.17;;;696.83;;
69835;SDS011;57132;51.972;4.450;2022-12-07T08:21:40;754.58;;;689.10;;
69835;SDS011;57132;51.972;4.450;2022-12-07T08:24:06;795.83;;;727.90;;
69835;SDS011;57132;51.972;4.450;2022-12-07T08:26:32;811.33;;;742.78;;
69835;SDS011;57132;51.972;4.450;2022-12-07T08:28:57;837.60;;;768.63;;
69835;SDS011;57132;51.972;4.450;2022-12-07T08:31:22;848.05;;;775.15;;
69835;SDS011;57132;51.972;4.450;2022-12-07T08:33:49;843.83;;;766.45;;
69835;SDS011;57132;51.972;4.450;2022-12-07T08:36:14;862.95;;;785.03;;
69835;SDS011;57132;51.972;4.450;2022-12-07T08:38:41;758.45;;;694.20;;
69835;SDS011;57132;51.972;4.450;2022-12-07T08:41:07;803.95;;;732.67;;
69835;SDS011;57132;51.972;4.450;2022-12-07T08:43:33;813.17;;;739.85;;
69835;SDS011;57132;51.972;4.450;2022-12-07T08:48:37;762.20;;;695.88;;
69835;SDS011;57132;51.972;4.450;2022-12-07T08:51:09;849.43;;;774.93;;
69835;SDS011;57132;51.972;4.450;2022-12-07T08:53:35;868.75;;;795.75;;
69835;SDS011;57132;51.972;4.450;2022-12-07T08:56:03;928.30;;;852.85;;
69835;SDS011;57132;51.972;4.450;2022-12-07T08:58:30;963.03;;;882.45;;
69835;SDS011;57132;51.972;4.450;2022-12-07T09:00:55;942.67;;;867.38;;
69835;SDS011;57132;51.972;4.450;2022-12-07T09:03:21;915.40;;;842.63;;
69835;SDS011;57132;51.972;4.450;2022-12-07T09:05:46;968.33;;;888.25;;
69835;SDS011;57132;51.972;4.450;2022-12-07T09:08:11;972.03;;;887.83;;
69835;SDS011;57132;51.972;4.450;2022-12-07T09:10:37;931.60;;;851.45;;
69835;SDS011;57132;51.972;4.450;2022-12-07T09:13:02;938.90;;;858.85;;
69835;SDS011;57132;51.972;4.450;2022-12-07T09:15:28;948.22;;;865.67;;
69835;SDS011;57132;51.972;4.450;2022-12-07T09:17:54;943.42;;;866.40;;
69835;SDS011;57132;51.972;4.450;2022-12-07T09:20:20;919.25;;;841.97;;
69835;SDS011;57132;51.972;4.450;2022-12-07T09:22:46;928.83;;;850.63;;
69835;SDS011;57132;51.972;4.450;2022-12-07T09:25:11;902.25;;;826.08;;
69835;SDS011;57132;51.972;4.450;2022-12-07T09:27:36;970.92;;;887.95;;
69835;SDS011;57132;51.972;4.450;2022-12-07T09:30:03;986.40;;;903.83;;
69835;SDS011;57132;51.972;4.450;2022-12-07T09:32:29;904.10;;;829.00;;
69835;SDS011;57132;51.972;4.450;2022-12-07T09:34:54;885.78;;;811.42;;
69835;SDS011;57132;51.972;4.450;2022-12-07T09:37:20;805.05;;;738.42;;
69835;SDS011;57132;51.972;4.450;2022-12-07T09:39:45;958.35;;;878.25;;
69835;SDS011;57132;51.972;4.450;2022-12-07T09:42:11;979.28;;;904.28;;
69835;SDS011;57132;51.972;4.450;2022-12-07T09:45:00;1026.90;;;940.65;;
69835;SDS011;57132;51.972;4.450;2022-12-07T09:47:26;1221.75;;;908.28;;
69835;SDS011;57132;51.972;4.450;2022-12-07T09:49:54;1999.90;;;999.90;;
69835;SDS011;57132;51.972;4.450;2022-12-07T09:52:27;1999.90;;;999.90;;
69835;SDS011;57132;51.972;4.450;2022-12-07T09:54:53;1999.90;;;999.90;;
69835;SDS011;57132;51.972;4.450;2022-12-07T09:57:29;1999.90;;;999.90;;
69835;SDS011;57132;51.972;4.450;2022-12-07T09:59:59;1999.90;;;999.90;;
69835;SDS011;57132;51.972;4.450;2022-12-07T10:02:38;1999.90;;;999.90;;
69835;SDS011;57132;51.972;4.450;2022-12-07T10:05:07;1999.90;;;999.90;;
69835;SDS011;57132;51.972;4.450;2022-12-07T10:07:38;1999.90;;;999.90;;
69835;SDS011;57132;51.972;4.450;2022-12-07T10:10:12;1999.90;;;999.90;;
69835;SDS011;57132;51.972;4.450;2022-12-07T10:12:57;1999.90;;;999.90;;
69835;SDS011;57132;51.972;4.450;2022-12-07T10:24:02;1999.90;;;999.90;;
69835;SDS011;57132;51.972;4.450;2022-12-07T10:26:48;1999.90;;;999.90;;
69835;SDS011;57132;51.972;4.450;2022-12-07T10:34:25;1999.90;;;999.90;;
69835;SDS011;57132;51.972;4.450;2022-12-07T10:36:55;1999.90;;;999.90;;
69835;SDS011;57132;51.972;4.450;2022-12-07T10:39:31;1999.90;;;999.90;;
69835;SDS011;57132;51.972;4.450;2022-12-07T10:42:18;1999.90;;;999.90;;
69835;SDS011;57132;51.972;4.450;2022-12-07T10:44:45;1999.90;;;999.90;;
69835;SDS011;57132;51.972;4.450;2022-12-07T10:57:57;1999.90;;;999.90;;
69835;SDS011;57132;51.972;4.450;2022-12-07T11:00:42;1999.90;;;999.90;;
69835;SDS011;57132;51.972;4.450;2022-12-07T11:06:02;1999.90;;;999.90;;
69835;SDS011;57132;51.972;4.450;2022-12-07T11:08:59;1999.90;;;999.90;;
69835;SDS011;57132;51.972;4.450;2022-12-07T11:11:47;1999.90;;;999.90;;
69835;SDS011;57132;51.972;4.450;2022-12-07T11:17:47;1999.90;;;999.90;;
69835;SDS011;57132;51.972;4.450;2022-12-07T11:22:28;1999.90;;;999.90;;
69835;SDS011;57132;51.972;4.450;2022-12-07T11:35:53;1999.90;;;999.90;;
69835;SDS011;57132;51.972;4.450;2022-12-07T11:38:30;1999.90;;;999.90;;
69835;SDS011;57132;51.972;4.450;2022-12-07T11:41:19;1999.90;;;999.90;;
69835;SDS011;57132;51.972;4.450;2022-12-07T11:43:52;1999.90;;;999.90;;
69835;SDS011;57132;51.972;4.450;2022-12-07T11:46:19;1999.90;;;999.90;;
69835;SDS011;57132;51.972;4.450;2022-12-07T11:48:52;519.75;;;366.38;;
69835;SDS011;57132;51.972;4.450;2022-12-07T11:51:20;733.22;;;523.05;;
69835;SDS011;57132;51.972;4.450;2022-12-07T11:53:57;798.60;;;595.40;;
69835;SDS011;57132;51.972;4.450;2022-12-07T11:56:28;914.53;;;669.75;;
69835;SDS011;57132;51.972;4.450;2022-12-07T12:02:18;977.33;;;697.75;;
69835;SDS011;57132;51.972;4.450;2022-12-07T12:04:56;967.78;;;702.90;;
69835;SDS011;57132;51.972;4.450;2022-12-07T12:07:27;964.17;;;728.83;;
69835;SDS011;57132;51.972;4.450;2022-12-07T12:10:00;914.50;;;796.45;;
69835;SDS011;57132;51.972;4.450;2022-12-07T12:12:53;984.00;;;882.10;;
69835;SDS011;57132;51.972;4.450;2022-12-07T12:15:56;970.80;;;874.03;;
69835;SDS011;57132;51.972;4.450;2022-12-07T12:21:30;1999.90;;;999.90;;
69835;SDS011;57132;51.972;4.450;2022-12-07T12:24:00;1999.90;;;999.90;;
69835;SDS011;57132;51.972;4.450;2022-12-07T12:26:30;1999.90;;;999.90;;
69835;SDS011;57132;51.972;4.450;2022-12-07T12:29:19;1999.90;;;999.90;;
69835;SDS011;57132;51.972;4.450;2022-12-07T12:31:51;1999.90;;;999.90;;
69835;SDS011;57132;51.972;4.450;2022-12-07T12:34:38;1999.90;;;999.90;;
69835;SDS011;57132;51.972;4.450;2022-12-07T12:37:13;1999.90;;;999.90;;
69835;SDS011;57132;51.972;4.450;2022-12-07T12:42:55;1999.90;;;999.90;;
69835;SDS011;57132;51.972;4.450;2022-12-07T12:45:23;1999.90;;;999.90;;
69835;SDS011;57132;51.972;4.450;2022-12-07T12:47:57;1999.90;;;999.90;;
69835;SDS011;57132;51.972;4.450;2022-12-07T12:53:42;1999.90;;;999.90;;
69835;SDS011;57132;51.972;4.450;2022-12-07T12:58:34;1999.90;;;999.90;;
69835;SDS011;57132;51.972;4.450;2022-12-07T13:04:27;1999.90;;;999.90;;
69835;SDS011;57132;51.972;4.450;2022-12-07T13:06:59;1999.90;;;999.90;;
69835;SDS011;57132;51.972;4.450;2022-12-07T13:09:28;1999.90;;;999.90;;
69835;SDS011;57132;51.972;4.450;2022-12-07T13:11:58;1999.90;;;999.90;;
69835;SDS011;57132;51.972;4.450;2022-12-07T13:20:01;1999.90;;;999.90;;
69835;SDS011;57132;51.972;4.450;2022-12-07T13:25:11;1999.90;;;999.90;;
69835;SDS011;57132;51.972;4.450;2022-12-07T13:27:43;1999.90;;;999.90;;
69835;SDS011;57132;51.972;4.450;2022-12-07T13:30:34;1999.90;;;999.90;;
69835;SDS011;57132;51.972;4.450;2022-12-07T13:33:27;1999.90;;;999.90;;
69835;SDS011;57132;51.972;4.450;2022-12-07T13:35:54;1999.90;;;999.90;;
69835;SDS011;57132;51.972;4.450;2022-12-07T13:41:34;1999.90;;;999.90;;
69835;SDS011;57132;51.972;4.450;2022-12-07T13:43:59;1999.90;;;999.90;;
69835;SDS011;57132;51.972;4.450;2022-12-07T13:46:44;1999.90;;;999.90;;
69835;SDS011;57132;51.972;4.450;2022-12-07T13:49:22;1999.90;;;999.90;;
69835;SDS011;57132;51.972;4.450;2022-12-07T13:51:50;1999.90;;;999.90;;
69835;SDS011;57132;51.972;4.450;2022-12-07T13:54:16;1999.90;;;999.90;;
69835;SDS011;57132;51.972;4.450;2022-12-07T13:56:42;1999.90;;;999.90;;
69835;SDS011;57132;51.972;4.450;2022-12-07T13:59:22;1999.90;;;999.90;;
69835;SDS011;57132;51.972;4.450;2022-12-07T14:01:50;1999.90;;;999.90;;
69835;SDS011;57132;51.972;4.450;2022-12-07T14:04:33;1999.90;;;999.90;;
69835;SDS011;57132;51.972;4.450;2022-12-07T14:07:19;1999.90;;;999.90;;
69835;SDS011;57132;51.972;4.450;2022-12-07T14:10:03;1999.90;;;999.90;;
69835;SDS011;57132;51.972;4.450;2022-12-07T14:12:31;1999.90;;;999.90;;
69835;SDS011;57132;51.972;4.450;2022-12-07T14:14:58;1999.90;;;999.90;;
69835;SDS011;57132;51.972;4.450;2022-12-07T14:17:26;1999.90;;;999.90;;
69835;SDS011;57132;51.972;4.450;2022-12-07T14:19:57;1999.90;;;999.90;;
69835;SDS011;57132;51.972;4.450;2022-12-07T14:22:35;1999.90;;;999.90;;
69835;SDS011;57132;51.972;4.450;2022-12-07T14:25:14;1999.90;;;999.90;;
69835;SDS011;57132;51.972;4.450;2022-12-07T14:27:46;1999.90;;;999.90;;
69835;SDS011;57132;51.972;4.450;2022-12-07T14:30:15;1999.90;;;999.90;;
69835;SDS011;57132;51.972;4.450;2022-12-07T14:32:42;1999.90;;;999.90;;
69835;SDS011;57132;51.972;4.450;2022-12-07T14:35:15;1999.90;;;999.90;;
69835;SDS011;57132;51.972;4.450;2022-12-07T14:37:42;1999.90;;;999.90;;
69835;SDS011;57132;51.972;4.450;2022-12-07T14:40:12;1999.90;;;999.90;;
69835;SDS011;57132;51.972;4.450;2022-12-07T14:42:42;1999.90;;;999.90;;
69835;SDS011;57132;51.972;4.450;2022-12-07T14:45:13;1999.90;;;999.90;;
69835;SDS011;57132;51.972;4.450;2022-12-07T14:47:40;1999.90;;;999.90;;
69835;SDS011;57132;51.972;4.450;2022-12-07T14:50:05;1999.90;;;999.90;;
69835;SDS011;57132;51.972;4.450;2022-12-07T14:52:31;1999.90;;;999.90;;
69835;SDS011;57132;51.972;4.450;2022-12-07T14:54:57;1618.20;;;829.53;;
69835;SDS011;57132;51.972;4.450;2022-12-07T14:57:23;511.17;;;368.75;;
69835;SDS011;57132;51.972;4.450;2022-12-07T14:59:48;665.10;;;500.17;;
69835;SDS011;57132;51.972;4.450;2022-12-07T15:02:14;802.47;;;572.90;;
69835;SDS011;57132;51.972;4.450;2022-12-07T15:04:40;689.30;;;492.38;;
69835;SDS011;57132;51.972;4.450;2022-12-07T15:07:09;761.55;;;541.20;;
69835;SDS011;57132;51.972;4.450;2022-12-07T15:09:43;743.75;;;518.65;;
69835;SDS011;57132;51.972;4.450;2022-12-07T15:12:08;768.67;;;537.33;;
69835;SDS011;57132;51.972;4.450;2022-12-07T15:14:34;807.38;;;553.05;;
69835;SDS011;57132;51.972;4.450;2022-12-07T15:17:00;891.47;;;617.80;;
69835;SDS011;57132;51.972;4.450;2022-12-07T15:19:25;939.78;;;648.38;;
69835;SDS011;57132;51.972;4.450;2022-12-07T15:21:52;957.22;;;659.17;;
69835;SDS011;57132;51.972;4.450;2022-12-07T15:24:18;952.65;;;667.05;;
69835;SDS011;57132;51.972;4.450;2022-12-07T15:26:44;1025.82;;;716.65;;
69835;SDS011;57132;51.972;4.450;2022-12-07T15:29:10;972.10;;;679.25;;
69835;SDS011;57132;51.972;4.450;2022-12-07T15:31:36;1022.97;;;716.75;;
69835;SDS011;57132;51.972;4.450;2022-12-07T15:34:03;1052.53;;;731.53;;
69835;SDS011;57132;51.972;4.450;2022-12-07T15:36:30;1052.32;;;735.50;;
69835;SDS011;57132;51.972;4.450;2022-12-07T15:38:57;1019.10;;;707.25;;
69835;SDS011;57132;51.972;4.450;2022-12-07T15:41:23;940.05;;;654.85;;
69835;SDS011;57132;51.972;4.450;2022-12-07T15:43:48;910.60;;;637.17;;
69835;SDS011;57132;51.972;4.450;2022-12-07T15:46:33;883.13;;;625.35;;
69835;SDS011;57132;51.972;4.450;2022-12-07T15:49:05;996.92;;;714.85;;
69835;SDS011;57132;51.972;4.450;2022-12-07T15:51:34;962.83;;;692.15;;